2006 YAGI (2006259N19155)


On this page: IBTrACS data - Map and Plots - Positions - Intensities - Original source data

Summary

Start Sep 16
End Sep 27
Basins EP
WP
LMI 140 kt
Sources jtwc_wp
tokyo
cma
hko
In WMO? Yes
Previous storm 2006 MIRIAM (EP)
Previous in basin 2006 TD0912 (WP)
Concurrent storms 2006 FLORENCE (NA)
2006 SHANSHAN (WP)
2006 GORDON (NA)
2006 HELENE (NA)
2006 LANE (EP)
2006 TWO (EP)
2006 MIRIAM (EP)
2006 YAGI (WP)
2006 MUKDA (NI)
2006 TD0922 (WP)
2006 MISSING (NI)
2006 THREE (EP)
2006 XANGSANE (WP)
Next in basin 2006 TD0922 (WP)
Next storm 2006 MUKDA (NI)

top of page IBTrACS Data: File Access

top of page HURSAT Data: File Access

Image of storm

top of page Plots:

Map of storm track will not appear if FTP is down
Time series of cyclone Maximum Sustained Wind will not appear if FTP is down
Time series of cyclone Minimum Central Pressure will not appear if FTP is down

top of page Track Data:Position

jtwc_wp tokyo cma hko
Date Lat Lon Lat Lon Lat Lon Lat Lon
2006-09-16 00:00:00 18.7 155.4
2006-09-16 06:00:00 19.3 155.6
2006-09-16 12:00:00 19.9 155.8 19.8 156.3 19.7 156.2
2006-09-16 18:00:00 20.3 156.3 20.1 156.6 20.1 156.6 20.2 156.6
2006-09-17 00:00:00 20.6 156.9 20.4 156.9 20.5 156.9 20.5 157.0
2006-09-17 06:00:00 20.8 157.5 20.6 157.5 21.0 157.6 20.7 157.6
2006-09-17 12:00:00 20.8 158.1 20.6 157.8 21.0 158.1 20.8 158.1
2006-09-17 18:00:00 20.8 158.5 20.6 158.2 20.9 158.5 20.7 158.5
2006-09-18 00:00:00 20.7 158.8 20.5 158.6 20.8 158.8 20.6 158.8
2006-09-18 06:00:00 20.5 159.1 20.5 158.9 20.5 159.1 20.5 159.1
2006-09-18 12:00:00 20.4 159.3 20.4 159.1 20.4 159.3 20.4 159.2
2006-09-18 18:00:00 20.3 159.3 20.3 159.2 20.3 159.4 20.3 159.3
2006-09-19 00:00:00 20.1 159.0 20.1 159.1 20.1 159.0 20.1 159.1
2006-09-19 06:00:00 20.0 158.6 20.0 158.6 20.0 158.6 20.0 158.6
2006-09-19 12:00:00 19.9 157.8 20.0 157.8 20.0 157.8 20.0 157.8
2006-09-19 18:00:00 19.8 156.8 19.8 156.8 19.8 156.8 19.8 156.8
2006-09-20 00:00:00 19.7 155.6 19.7 155.6 19.7 155.6 19.7 155.6
2006-09-20 06:00:00 19.6 154.0 19.6 154.1 19.6 154.1 19.6 154.1
2006-09-20 12:00:00 19.6 152.4 19.6 152.5 19.6 152.5 19.6 152.5
2006-09-20 18:00:00 19.5 150.8 19.6 150.8 19.6 150.8 19.7 150.8
2006-09-21 00:00:00 20.1 149.2 20.1 149.3 20.1 149.3 20.1 149.3
2006-09-21 06:00:00 20.6 147.6 20.7 147.7 20.7 147.7 20.7 147.7
2006-09-21 12:00:00 21.5 146.1 21.5 146.2 21.5 146.2 21.5 146.2
2006-09-21 18:00:00 22.6 144.7 22.6 144.8 22.6 144.8 22.6 144.8
2006-09-22 00:00:00 23.8 143.5 23.7 143.6 23.7 143.6 23.7 143.6
jtwc_wp tokyo cma hko
2006-09-22 06:00:00 25.0 142.5 25.0 142.5 25.0 142.5 25.0 142.6
2006-09-22 12:00:00 26.2 142.0 26.1 142.1 26.1 142.1 26.1 142.1
2006-09-22 18:00:00 27.4 141.8 27.3 141.9 27.3 141.9 27.3 141.9
2006-09-23 00:00:00 28.7 142.0 28.5 142.2 28.6 142.2 28.5 142.2
2006-09-23 06:00:00 30.0 142.7 30.0 142.6 30.0 142.8 30.0 142.8
2006-09-23 12:00:00 31.1 143.7 31.0 143.7 31.1 143.7 31.0 143.7
2006-09-23 18:00:00 32.3 145.1 32.1 145.1 32.1 145.1 32.1 145.1
2006-09-24 00:00:00 34.0 147.0 33.8 147.0 33.8 147.0 33.8 147.0
2006-09-24 06:00:00 35.7 149.5 35.3 149.1 35.3 149.1 35.3 149.1
2006-09-24 12:00:00 37.3 152.6 36.4 151.3 36.4 151.3 36.4 151.3
2006-09-24 18:00:00 38.9 156.7 38.2 155.1 38.2 155.1 38.2 155.1
2006-09-25 00:00:00 40.4 159.5 40.3 159.4 40.3 159.4 40.3 159.4
2006-09-25 06:00:00 42.1 163.7 42.0 163.9 42.0 163.9
2006-09-25 12:00:00 43.7 167.3 43.7 167.3
2006-09-25 18:00:00 45.7 170.3 45.7 170.3
2006-09-26 00:00:00 47.6 173.2 47.6 173.2
2006-09-26 06:00:00 48.4 174.8 48.4 174.8
2006-09-26 12:00:00 48.9 176.4 48.9 176.4
2006-09-26 18:00:00 48.6 177.7
2006-09-27 00:00:00 48.2 179.7
2006-09-27 06:00:00 47.6 182.7

top of pageTrack Data:Intensity

jtwc_wp tokyo cma hko
Date Wind Pres Wind Pres Wind Pres Wind Pres
2006-09-16 00:00:00 15. 1006.
2006-09-16 06:00:00 20. 1004.
2006-09-16 12:00:00 20. 1004. 1008. 29. 1002.
2006-09-16 18:00:00 25. 1002. 1006. 29. 1000. 25. 1006.
2006-09-17 00:00:00 30. 1000. 1006. 29. 1000. 30. 1004.
2006-09-17 06:00:00 35. 997. 35. 1002. 35. 995. 35. 1002.
2006-09-17 12:00:00 45. 991. 35. 1000. 39. 995. 35. 1000.
2006-09-17 18:00:00 45. 991. 40. 994. 39. 995. 40. 995.
2006-09-18 00:00:00 50. 987. 45. 990. 45. 990. 45. 990.
2006-09-18 06:00:00 55. 984. 45. 990. 49. 990. 45. 990.
2006-09-18 12:00:00 60. 980. 50. 985. 49. 990. 50. 985.
2006-09-18 18:00:00 65. 976. 55. 980. 54. 985. 55. 980.
2006-09-19 00:00:00 75. 967. 65. 970. 64. 975. 65. 970.
2006-09-19 06:00:00 90. 954. 75. 960. 78. 965. 75. 960.
2006-09-19 12:00:00 90. 954. 75. 960. 78. 960. 75. 960.
2006-09-19 18:00:00 100. 944. 85. 950. 87. 950. 85. 950.
2006-09-20 00:00:00 115. 927. 90. 940. 87. 950. 90. 940.
2006-09-20 06:00:00 120. 922. 90. 940. 97. 940. 90. 940.
2006-09-20 12:00:00 120. 922. 90. 940. 97. 940. 90. 940.
2006-09-20 18:00:00 120. 922. 90. 940. 97. 940. 90. 940.
2006-09-21 00:00:00 120. 922. 90. 940. 97. 940. 90. 940.
2006-09-21 06:00:00 130. 910. 90. 930. 107. 935. 95. 930.
2006-09-21 12:00:00 140. 898. 105. 910. 117. 920. 105. 920.
2006-09-21 18:00:00 140. 898. 105. 910. 117. 920. 105. 920.
2006-09-22 00:00:00 140. 898. 100. 915. 117. 920. 105. 920.
jtwc_wp tokyo cma hko
2006-09-22 06:00:00 140. 898. 100. 915. 117. 920. 100. 922.
2006-09-22 12:00:00 120. 922. 95. 925. 107. 935. 95. 925.
2006-09-22 18:00:00 115. 927. 85. 940. 97. 940. 85. 940.
2006-09-23 00:00:00 105. 938. 80. 950. 87. 950. 80. 950.
2006-09-23 06:00:00 95. 949. 80. 950. 87. 950. 80. 950.
2006-09-23 12:00:00 90. 954. 75. 955. 78. 960. 75. 955.
2006-09-23 18:00:00 85. 958. 75. 955. 78. 960. 75. 955.
2006-09-24 00:00:00 75. 967. 70. 965. 68. 970. 70. 965.
2006-09-24 06:00:00 75. 967. 60. 975. 58. 980. 60. 975.
2006-09-24 12:00:00 65. 976. 55. 980. 54. 985. 55. 980.
2006-09-24 18:00:00 60. 980. 50. 985. 49. 990. 50. 985.
2006-09-25 00:00:00 50. 987. 50. 985. 49. 990. 50. 985.
2006-09-25 06:00:00 45. 991. 984. 29. 984.
2006-09-25 12:00:00 980. 29. 980.
2006-09-25 18:00:00 976. 29. 976.
2006-09-26 00:00:00 972. 29. 972.
2006-09-26 06:00:00 968. 29. 968.
2006-09-26 12:00:00 970. 29. 970.
2006-09-26 18:00:00 974.
2006-09-27 00:00:00 978.
2006-09-27 06:00:00 980.

top of page Links to source data

Source Source file Format
jtwc_wp bwp162006.txt ATCF
tokyo bst_all.txt:Line=55915:YAGI:614 JMA text table
cma CH2006BST.txt:Storm=18:Yagi CMA text table
hko tc-besttrack-data.txt:Line=32216:YAGI HKO Text table